Fort Meade, MD

1:19 PM EDT on June 28, 2017 (GMT -0400)
Tipton

Weather History for KFME - November, 2012

Change the Weather History Date:

Thursday, November 29, 2012

  Actual Average (KBWI) Record (KBWI)
Temperature  
Mean Temperature 34 °F -  
Max Temperature 48 °F 51 °F 74 °F (1927)
Min Temperature 21 °F 33 °F 13 °F (1955)
Degree Days  
Heating Degree Days 30    
Moisture  
Dew Point 23 °F    
Average Humidity 73    
Maximum Humidity 100    
Minimum Humidity 34    
Precipitation  
Precipitation 0.00 in - - ()
Sea Level Pressure  
Sea Level Pressure 30.41 in    
Wind  
Wind Speed 2 mph (WSW)    
Max Wind Speed 14 mph    
Max Gust Speed 18 mph    
Visibility 10 miles    
Events      
Averages and records for this station are not official NWS values.
T = Trace of Precipitation, MM = Missing Value Source: NWS Daily Summary

Daily Weather History Graph

Daily Weather History Graph

Search for Another Location

Airport or City:

Trip Planner

Search our weather history database for the weather conditions in past years. The results will help you decide how hot, cold, wet, or windy it might be!

Date:

Astronomy

Nov. 29, 2012 Rise Set
Actual Time 7:05 AM EST 4:45 PM EST
Civil Twilight 6:36 AM EST 5:14 PM EST
Nautical Twilight 6:03 AM EST 5:47 PM EST
Astronomical Twilight 5:30 AM EST 6:19 PM EST
Moon 5:46 PM EST (11/29) 7:50 AM EST (11/29)
Length of Visible Light 10h 38m
Length of Day
9h 39m
Full, 99% of the Moon is Illuminated
Nov 29
Full
Dec 6
Last Quarter
Dec 13
New
Dec 20
First Quarter
Dec 28
Full

Hourly Weather History & Observations

Time (EST) Temp. Windchill Dew Point Humidity Pressure Visibility Wind Dir Wind Speed Gust Speed Precip Events Conditions
12:09 AM 26.6 °F - 23.0 °F 86% 30.40 in 10.0 mi Calm Calm - N/A   Clear
12:30 AM 24.8 °F - 23.0 °F 93% 30.40 in 10.0 mi Calm Calm - N/A   Clear
12:51 AM 24.8 °F - 23.0 °F 93% 30.40 in 10.0 mi Calm Calm - N/A   Clear
1:57 AM 23.0 °F - 21.2 °F 93% 30.41 in 10.0 mi Calm Calm - N/A   Clear
2:18 AM 23.0 °F - 23.0 °F 100% 30.41 in 10.0 mi Calm Calm - N/A   Clear
2:39 AM 23.0 °F - 21.2 °F 93% 30.41 in 10.0 mi Calm Calm - N/A   Clear
3:00 AM 23.0 °F - 21.2 °F 93% 30.41 in 10.0 mi Calm Calm - N/A   Clear
3:42 AM 23.0 °F - 21.2 °F 93% 30.40 in 10.0 mi Calm Calm - N/A   Clear
4:03 AM 23.0 °F - 21.2 °F 93% 30.40 in 10.0 mi Calm Calm - N/A   Clear
4:24 AM 23.0 °F - 21.2 °F 93% 30.41 in 10.0 mi Calm Calm - N/A   Clear
4:45 AM 23.0 °F - 21.2 °F 93% 30.41 in 10.0 mi Calm Calm - N/A   Clear
5:06 AM 21.2 °F - 21.2 °F 100% 30.42 in 10.0 mi Calm Calm - N/A   Clear
5:30 AM 23.0 °F - 21.2 °F 93% 30.42 in 10.0 mi Calm Calm - N/A   Clear
5:51 AM 21.2 °F - 21.2 °F 100% 30.43 in 10.0 mi Calm Calm - N/A   Clear
6:12 AM 23.0 °F - 21.2 °F 93% 30.43 in 10.0 mi Calm Calm - N/A   Clear
6:33 AM 21.2 °F - 21.2 °F 100% 30.44 in 10.0 mi Calm Calm - N/A   Clear
6:54 AM 23.0 °F - 21.2 °F 93% 30.45 in 10.0 mi Calm Calm - N/A   Clear
7:15 AM 23.0 °F - 21.2 °F 93% 30.45 in 10.0 mi Calm Calm - N/A   Clear
7:36 AM 23.0 °F - 21.2 °F 93% 30.45 in 10.0 mi Calm Calm - N/A   Clear
7:57 AM 24.8 °F - 23.0 °F 93% 30.45 in 10.0 mi Calm Calm - N/A   Clear
8:18 AM 28.4 °F - 26.6 °F 93% 30.46 in 10.0 mi Calm Calm - N/A   Clear
8:39 AM 30.2 °F - 28.4 °F 93% 30.46 in 10.0 mi Calm Calm - N/A   Clear
9:00 AM 32.0 °F - 30.2 °F 93% 30.47 in 10.0 mi Calm Calm - N/A   Clear
9:45 AM 39.2 °F 37.0 °F 30.2 °F 70% 30.47 in 10.0 mi West 3.5 mph - N/A   Clear
10:27 AM 44.6 °F 39.7 °F 26.6 °F 49% 30.47 in 10.0 mi WNW 9.2 mph - N/A   Clear
10:48 AM 44.6 °F 39.7 °F 26.6 °F 49% 30.47 in 10.0 mi West 9.2 mph - N/A   Clear
11:09 AM 44.6 °F 39.2 °F 26.6 °F 49% 30.47 in 10.0 mi WNW 10.4 mph 18.4 mph N/A   Clear
11:30 AM 46.4 °F 40.7 °F 24.8 °F 43% 30.46 in 10.0 mi West 12.7 mph 18.4 mph N/A   Clear
11:51 AM 46.4 °F 41.5 °F 24.8 °F 43% 30.45 in 10.0 mi NW 10.4 mph 16.1 mph N/A   Clear
12:12 PM 46.4 °F 40.7 °F 23.0 °F 40% 30.44 in 10.0 mi WSW 12.7 mph 16.1 mph N/A   Clear
12:33 PM 46.4 °F 41.1 °F 23.0 °F 40% 30.43 in 10.0 mi WNW 11.5 mph - N/A   Clear
12:54 PM 46.4 °F 40.4 °F 23.0 °F 40% 30.42 in 10.0 mi WSW 13.8 mph - N/A   Clear
1:15 PM 48.2 °F - 23.0 °F 37% 30.41 in 10.0 mi WSW 9.2 mph - N/A   Clear
1:36 PM 48.2 °F - 21.2 °F 34% 30.40 in 10.0 mi WSW 10.4 mph - N/A   Clear
1:57 PM 48.2 °F - 21.2 °F 34% 30.39 in 10.0 mi SW 6.9 mph - N/A   Clear
2:21 PM 48.2 °F - 21.2 °F 34% 30.38 in 10.0 mi WNW 8.1 mph - N/A   Clear
3:03 PM 48.2 °F - 21.2 °F 34% 30.36 in 10.0 mi West 3.5 mph - N/A   Clear
3:24 PM 46.4 °F 41.5 °F 21.2 °F 37% 30.36 in 10.0 mi West 10.4 mph - N/A   Clear
3:45 PM 46.4 °F 43.5 °F 19.4 °F 34% 30.37 in 10.0 mi WSW 5.8 mph - N/A   Clear
4:06 PM 46.4 °F 42.9 °F 19.4 °F 34% 30.37 in 10.0 mi WSW 6.9 mph - N/A   Clear
4:27 PM 44.6 °F 42.2 °F 21.2 °F 39% 30.36 in 10.0 mi South 4.6 mph - N/A   Clear
4:48 PM 41.0 °F 38.0 °F 23.0 °F 49% 30.36 in 10.0 mi SSW 4.6 mph - N/A   Clear
5:09 PM 37.4 °F 34.9 °F 24.8 °F 60% 30.37 in 10.0 mi SSW 3.5 mph - N/A   Clear
5:30 PM 35.6 °F - 26.6 °F 70% 30.37 in 10.0 mi Calm Calm - N/A   Clear
5:51 PM 35.6 °F - 23.0 °F 60% 30.37 in 10.0 mi Calm Calm - N/A   Clear
6:12 PM 33.8 °F - 23.0 °F 65% 30.38 in 10.0 mi Calm Calm - N/A   Clear
6:33 PM 32.0 °F - 23.0 °F 69% 30.37 in 10.0 mi Calm Calm - N/A   Clear
6:57 PM 32.0 °F - 26.6 °F 80% 30.37 in 10.0 mi Calm Calm - N/A   Clear
7:18 PM 32.0 °F - 26.6 °F 80% 30.38 in 10.0 mi Calm Calm - N/A   Clear
7:39 PM 30.2 °F - 26.6 °F 86% 30.38 in 10.0 mi Calm Calm - N/A   Clear
8:00 PM 30.2 °F - 26.6 °F 86% 30.39 in 10.0 mi Calm Calm - N/A   Clear
8:21 PM 30.2 °F - 24.8 °F 80% 30.39 in 10.0 mi Calm Calm - N/A   Clear
8:42 PM 30.2 °F - 24.8 °F 80% 30.38 in 10.0 mi Calm Calm - N/A   Clear
9:03 PM 28.4 °F - 24.8 °F 86% 30.38 in 10.0 mi Calm Calm - N/A   Clear
9:24 PM 28.4 °F - 24.8 °F 86% 30.39 in 10.0 mi Calm Calm - N/A   Clear
9:45 PM 28.4 °F - 24.8 °F 86% 30.39 in 10.0 mi Calm Calm - N/A   Clear
10:06 PM 28.4 °F - 23.0 °F 80% 30.38 in 10.0 mi Calm Calm - N/A   Clear
10:27 PM 28.4 °F - 23.0 °F 80% 30.37 in 10.0 mi Calm Calm - N/A   Clear
10:48 PM 26.6 °F - 23.0 °F 86% 30.38 in 10.0 mi Calm Calm - N/A   Clear
11:12 PM 26.6 °F - 24.8 °F 93% 30.37 in 10.0 mi Calm Calm - N/A   Clear
11:33 PM 26.6 °F - 23.0 °F 86% 30.37 in 10.0 mi Calm Calm - N/A   Clear
11:54 PM 26.6 °F - 23.0 °F 86% 30.37 in 10.0 mi Calm Calm - N/A   Clear